Time;durP1;ratioP1;P1;durP2;ratioP2;P2;SDS_P1;SDS_P2;PMS_P1;PMS_P2;Temp;Humidity;BMP_temperature;BMP_pressure;BME280_temperature;BME280_humidity;BME280_pressure;Samples;Min_cycle;Max_cycle;Signal;HPM_P1;HPM_P2
2021/10/01 00:02:09;;;;;;;2.42;1.50;;;;;;;27.32;20.50;99346.16;5089667;28;20031;-87
2021/10/01 00:04:36;;;;;;;3.05;1.88;;;;;;;27.30;20.32;99343.78;5087641;28;20024;-86
2021/10/01 00:07:02;;;;;;;2.53;1.63;;;;;;;27.29;20.69;99349.81;5084700;28;20437;-87
2021/10/01 00:09:28;;;;;;;1.85;1.42;;;;;;;27.15;20.59;99350.81;5085469;28;20032;-87
2021/10/01 00:11:54;;;;;;;2.75;1.85;;;;;;;26.95;20.94;99341.47;5086993;28;20072;-86
2021/10/01 00:14:23;;;;;;;2.95;2.08;;;;;;;27.07;20.42;99343.69;5085870;28;20652;-87
2021/10/01 00:16:50;;;;;;;1.60;1.50;;;;;;;26.96;20.25;99351.50;5086800;28;20043;-87
2021/10/01 00:19:17;;;;;;;2.13;1.25;;;;;;;26.50;21.00;99351.25;5086727;28;20032;-86
2021/10/01 00:21:43;;;;;;;2.67;1.58;;;;;;;26.36;21.46;99348.59;5083658;28;20383;-87
2021/10/01 00:24:09;;;;;;;2.58;1.92;;;;;;;26.56;21.25;99356.00;5084909;28;20043;-86
2021/10/01 00:26:37;;;;;;;2.70;1.83;;;;;;;26.85;20.70;99352.84;5065631;28;20035;-87
2021/10/01 00:29:04;;;;;;;1.90;1.63;;;;;;;27.08;20.68;99348.13;5085695;28;20484;-86
2021/10/01 00:31:31;;;;;;;1.67;1.58;;;;;;;27.21;20.02;99340.66;5084932;28;20066;-86
2021/10/01 00:33:57;;;;;;;2.88;1.45;;;;;;;27.25;20.10;99343.44;5072049;28;20066;-87
2021/10/01 00:36:24;;;;;;;1.50;1.20;;;;;;;27.29;19.76;99335.72;5087360;28;20028;-87
2021/10/01 00:38:50;;;;;;;1.73;1.33;;;;;;;27.27;19.48;99341.78;5088134;28;20040;-87
2021/10/01 00:41:16;;;;;;;1.50;1.40;;;;;;;27.27;19.42;99338.16;5093657;28;20056;-87
2021/10/01 00:43:42;;;;;;;2.13;1.50;;;;;;;27.03;19.48;99328.03;5092357;28;20042;-86
2021/10/01 00:46:08;;;;;;;1.08;0.90;;;;;;;26.73;19.99;99340.91;5090563;28;20032;-87
2021/10/01 00:48:34;;;;;;;1.45;1.35;;;;;;;26.68;20.18;99341.38;5084821;28;20051;-87
2021/10/01 00:51:00;;;;;;;1.60;1.30;;;;;;;26.83;19.71;99335.56;5082988;28;20024;-87
2021/10/01 00:53:26;;;;;;;1.92;1.33;;;;;;;26.83;19.98;99329.94;5087536;28;20036;-87
2021/10/01 00:55:52;;;;;;;1.40;1.30;;;;;;;26.82;20.21;99334.78;5087159;28;20047;-87
2021/10/01 00:58:18;;;;;;;1.33;1.10;;;;;;;26.89;20.25;99326.22;5084247;28;20032;-87
2021/10/01 01:01:03;;;;;;;1.55;1.30;;;;;;;26.81;19.80;99318.28;5078756;28;20027;-87
2021/10/01 01:03:29;;;;;;;1.80;1.17;;;;;;;26.94;19.66;99325.75;5081042;28;20061;-87
2021/10/01 01:06:32;;;;;;;2.15;1.20;;;;;;;26.93;19.55;99329.81;5090394;28;20035;-87
2021/10/01 01:09:09;;;;;;;1.73;1.23;;;;;;;26.95;19.65;99318.09;5079648;28;20044;-88
2021/10/01 01:11:55;;;;;;;2.28;1.33;;;;;;;26.73;19.71;99326.81;5090110;28;20035;-88
2021/10/01 01:14:26;;;;;;;1.38;1.25;;;;;;;26.80;19.86;99325.13;5087648;28;20525;-87
2021/10/01 01:16:55;;;;;;;1.95;1.30;;;;;;;26.84;19.70;99318.22;5085572;28;20024;-87
2021/10/01 01:19:47;;;;;;;1.63;1.27;;;;;;;26.90;19.47;99325.00;5087438;28;20066;-87
2021/10/01 01:22:19;;;;;;;1.40;1.30;;;;;;;26.95;19.53;99321.72;5090343;28;20120;-87
2021/10/01 01:25:22;;;;;;;2.17;1.60;;;;;;;26.88;19.35;99318.19;5090553;28;20038;-87
2021/10/01 01:28:25;;;;;;;1.70;1.25;;;;;;;26.85;19.55;99325.47;5067840;28;20028;-88
2021/10/01 01:30:55;;;;;;;1.30;1.20;;;;;;;26.99;19.03;99322.47;5088032;28;20039;-87
2021/10/01 01:33:23;;;;;;;1.17;1.08;;;;;;;27.03;19.28;99326.03;5090731;28;20043;-87
2021/10/01 01:35:57;;;;;;;1.20;1.10;;;;;;;26.88;19.38;99329.47;5088853;28;20523;-87
2021/10/01 01:38:30;;;;;;;1.50;1.35;;;;;;;26.84;19.46;99325.91;5091842;28;20035;-87
2021/10/01 01:41:02;;;;;;;1.20;1.10;;;;;;;26.95;19.20;99333.00;5085147;28;20545;-87
2021/10/01 01:43:30;;;;;;;2.00;1.40;;;;;;;26.43;19.77;99328.81;5072756;28;20119;-87
2021/10/01 01:45:58;;;;;;;1.38;1.00;;;;;;;26.12;20.02;99330.75;5094843;28;20062;-87
2021/10/01 01:48:25;;;;;;;1.52;1.38;;;;;;;26.26;19.85;99330.59;5071963;28;20036;-88
2021/10/01 01:50:51;;;;;;;2.60;1.63;;;;;;;26.29;19.92;99328.97;5083440;28;20036;-87
2021/10/01 01:53:20;;;;;;;1.40;1.30;;;;;;;26.51;19.51;99333.91;5088609;28;20036;-88
2021/10/01 01:55:49;;;;;;;1.13;1.00;;;;;;;26.65;19.47;99332.97;5090557;27;20040;-88
2021/10/01 01:58:17;;;;;;;1.50;1.20;;;;;;;26.78;19.40;99338.84;5086434;28;20024;-88
2021/10/01 02:00:45;;;;;;;1.48;1.38;;;;;;;26.91;19.10;99334.28;5092608;28;20123;-88
2021/10/01 02:03:13;;;;;;;2.83;1.45;;;;;;;26.82;18.98;99334.78;5089961;28;20036;-88
2021/10/01 02:05:40;;;;;;;1.10;1.00;;;;;;;26.78;19.30;99336.84;5090152;28;20064;-88
2021/10/01 02:08:08;;;;;;;1.83;1.20;;;;;;;26.67;19.32;99342.59;5088298;28;20044;-87
2021/10/01 02:10:37;;;;;;;2.05;1.23;;;;;;;26.72;19.16;99335.69;5090557;28;20081;-88
2021/10/01 02:13:07;;;;;;;1.15;1.05;;;;;;;26.84;19.27;99337.97;5087458;28;20040;-88
2021/10/01 02:15:34;;;;;;;1.83;1.10;;;;;;;26.88;19.06;99340.75;5088342;28;20028;-88
2021/10/01 02:18:03;;;;;;;2.15;0.90;;;;;;;26.97;18.82;99338.22;5087393;28;20028;-88
2021/10/01 02:20:32;;;;;;;1.10;1.00;;;;;;;26.99;18.57;99338.56;5085283;28;20089;-87
2021/10/01 02:22:59;;;;;;;1.30;1.00;;;;;;;26.94;19.14;99341.88;5089369;28;20032;-87
2021/10/01 02:28:23;;;;;;;1.25;1.00;;;;;;;26.82;19.16;99348.06;5087416;28;20198;-87
2021/10/01 02:30:52;;;;;;;1.15;0.90;;;;;;;26.74;19.07;99345.31;5085449;28;20078;-87
2021/10/01 02:33:29;;;;;;;1.00;0.90;;;;;;;26.82;19.03;99343.22;5088187;28;20154;-87
2021/10/01 02:35:55;;;;;;;1.70;1.30;;;;;;;26.96;18.97;99347.88;5082012;28;20036;-87
2021/10/01 02:38:21;;;;;;;1.05;1.00;;;;;;;27.03;18.86;99353.41;5086282;28;20253;-89
2021/10/01 02:40:47;;;;;;;1.40;1.02;;;;;;;27.09;18.96;99351.72;5084001;28;20082;-89
2021/10/01 02:43:13;;;;;;;1.33;1.02;;;;;;;26.99;18.93;99349.84;5085524;28;20035;-90
2021/10/01 02:45:39;;;;;;;1.42;1.30;;;;;;;26.57;19.38;99348.34;5091074;28;20047;-90
2021/10/01 02:48:05;;;;;;;1.50;1.20;;;;;;;26.67;19.21;99351.06;5086192;28;20097;-90
2021/10/01 02:50:32;;;;;;;1.05;0.93;;;;;;;26.81;19.38;99343.66;5086576;28;20032;-89
2021/10/01 02:53:18;;;;;;;1.00;0.90;;;;;;;26.65;19.53;99342.19;5086838;28;20403;-90
2021/10/01 02:56:02;;;;;;;1.42;1.08;;;;;;;26.24;19.91;99349.94;5086207;28;20070;-89
2021/10/01 02:58:39;;;;;;;0.82;0.82;;;;;;;26.41;19.68;99348.94;5086870;28;20032;-89
2021/10/01 03:01:10;;;;;;;1.23;1.05;;;;;;;26.40;19.52;99344.53;5085472;28;20392;-89
2021/10/01 03:03:43;;;;;;;1.35;1.13;;;;;;;25.90;19.81;99343.41;5089468;28;20050;-89
2021/10/01 03:06:11;;;;;;;1.33;1.23;;;;;;;25.50;20.43;99346.97;5085608;28;20434;-89
2021/10/01 03:08:38;;;;;;;1.33;1.23;;;;;;;25.52;20.49;99347.34;5087100;28;20085;-89
2021/10/01 03:11:10;;;;;;;1.67;1.05;;;;;;;25.84;20.32;99331.00;5085626;28;20032;-89
2021/10/01 03:13:39;;;;;;;1.10;0.85;;;;;;;25.74;20.08;99331.91;5088530;28;20034;-89
2021/10/01 03:16:06;;;;;;;1.30;1.20;;;;;;;25.52;20.28;99331.28;5082498;28;20055;-89
2021/10/01 03:18:34;;;;;;;1.52;1.25;;;;;;;25.08;21.07;99329.16;5085047;28;20972;-89
2021/10/01 03:21:05;;;;;;;1.05;1.02;;;;;;;25.01;21.10;99326.41;5083300;28;20067;-89
2021/10/01 03:23:34;;;;;;;1.20;1.10;;;;;;;25.24;20.73;99329.44;5086882;28;20039;-87
2021/10/01 03:26:00;;;;;;;1.77;1.15;;;;;;;25.58;20.52;99328.84;5069996;28;20068;-87
2021/10/01 03:28:27;;;;;;;1.17;0.98;;;;;;;25.89;19.94;99325.72;5080626;28;20032;-86
2021/10/01 03:30:56;;;;;;;2.20;1.23;;;;;;;26.19;20.11;99329.88;5085766;28;20114;-87
2021/10/01 03:33:27;;;;;;;1.40;1.20;;;;;;;25.96;20.16;99324.84;5081205;28;20024;-86
2021/10/01 03:35:54;;;;;;;2.30;1.20;;;;;;;26.12;20.17;99319.50;5086144;28;20059;-87
2021/10/01 03:38:20;;;;;;;1.15;1.00;;;;;;;26.18;19.80;99329.09;5083900;28;20438;-86
2021/10/01 03:40:47;;;;;;;1.30;1.20;;;;;;;26.21;20.20;99314.16;5095089;28;20028;-87
2021/10/01 03:43:15;;;;;;;1.25;1.10;;;;;;;26.05;20.17;99316.72;5082496;28;20535;-86
2021/10/01 03:45:41;;;;;;;1.02;0.75;;;;;;;26.12;19.97;99316.66;5090349;28;20480;-87
2021/10/01 03:48:08;;;;;;;1.67;1.27;;;;;;;26.37;19.81;99313.59;5082512;28;20048;-86
2021/10/01 03:50:36;;;;;;;1.67;1.13;;;;;;;26.47;19.79;99309.84;5080313;28;20031;-89
2021/10/01 03:53:03;;;;;;;1.52;1.05;;;;;;;26.04;19.96;99299.03;5086431;28;20063;-87
2021/10/01 03:55:29;;;;;;;1.38;1.15;;;;;;;26.02;20.07;99309.13;5086438;28;20040;-87
2021/10/01 03:57:55;;;;;;;2.72;1.20;;;;;;;26.09;19.79;99297.78;5085106;28;20953;-87
2021/10/01 04:00:21;;;;;;;1.92;1.30;;;;;;;25.80;20.41;99299.28;5091547;28;20484;-87
2021/10/01 04:02:48;;;;;;;1.10;1.00;;;;;;;25.56;20.82;99292.66;5086406;28;20389;-87
2021/10/01 04:05:16;;;;;;;1.80;1.30;;;;;;;25.67;20.69;99293.38;5083295;28;20040;-87
2021/10/01 04:07:43;;;;;;;1.45;1.30;;;;;;;25.84;20.48;99292.41;5086827;28;20031;-90
2021/10/01 04:10:10;;;;;;;2.33;1.60;;;;;;;25.92;20.68;99293.94;5086389;28;20326;-90
2021/10/01 04:12:37;;;;;;;2.75;1.40;;;;;;;25.92;20.46;99287.50;5088872;28;20056;-90
2021/10/01 04:15:04;;;;;;;1.83;1.45;;;;;;;26.02;20.33;99286.63;5085643;28;20046;-89
2021/10/01 04:17:30;;;;;;;1.45;1.35;;;;;;;26.04;20.65;99287.00;5084614;28;20028;-89
2021/10/01 04:19:57;;;;;;;1.30;1.20;;;;;;;26.12;20.96;99293.34;5084246;28;20036;-88
2021/10/01 04:22:23;;;;;;;3.00;1.83;;;;;;;25.90;21.93;99289.94;5086947;28;20021;-90
2021/10/01 04:24:49;;;;;;;2.70;1.60;;;;;;;25.60;22.02;99284.22;5087870;28;20080;-86
2021/10/01 04:27:15;;;;;;;1.80;1.25;;;;;;;25.63;21.84;99286.19;5092762;28;20077;-86
2021/10/01 04:29:42;;;;;;;3.08;1.77;;;;;;;25.65;22.13;99284.53;5091463;28;20143;-87
2021/10/01 04:32:09;;;;;;;1.65;1.50;;;;;;;25.78;21.91;99291.28;5092844;28;20032;-87
2021/10/01 04:37:20;;;;;;;2.53;1.85;;;;;;;25.80;22.20;99294.47;5082956;28;20039;-86
2021/10/01 04:39:46;;;;;;;3.03;1.83;;;;;;;25.34;22.72;99297.63;5089396;28;20076;-86
2021/10/01 04:42:12;;;;;;;3.42;1.63;;;;;;;25.70;22.42;99295.34;5084927;28;20510;-86
2021/10/01 04:44:38;;;;;;;2.08;1.70;;;;;;;25.69;22.45;99301.41;5087259;28;20032;-87
2021/10/01 04:47:04;;;;;;;2.40;2.17;;;;;;;25.72;22.33;99294.97;5088072;28;20032;-86
2021/10/01 04:49:31;;;;;;;1.67;1.55;;;;;;;25.96;22.04;99289.06;5090682;28;20716;-89
2021/10/01 04:51:57;;;;;;;2.20;1.58;;;;;;;26.09;21.62;99292.16;5088474;28;20177;-87
2021/10/01 04:54:23;;;;;;;3.20;2.42;;;;;;;26.09;21.97;99301.38;5085256;28;20044;-88
2021/10/01 04:56:49;;;;;;;2.72;2.03;;;;;;;25.93;22.14;99301.16;5083261;28;20044;-91
2021/10/01 04:59:15;;;;;;;2.65;2.08;;;;;;;25.61;22.83;99294.22;5086587;28;20036;-87
2021/10/01 05:01:41;;;;;;;2.78;2.00;;;;;;;25.55;22.76;99299.53;5086707;28;20130;-88
2021/10/01 05:04:07;;;;;;;3.63;1.85;;;;;;;25.65;22.67;99295.03;5082493;28;20035;-87
2021/10/01 05:06:33;;;;;;;3.30;1.80;;;;;;;25.68;23.06;99289.34;5088808;28;20036;-86
2021/10/01 05:08:59;;;;;;;2.03;1.58;;;;;;;26.04;21.89;99289.81;5085238;28;20035;-85
2021/10/01 05:11:25;;;;;;;2.85;2.15;;;;;;;26.31;21.63;99293.53;5095614;28;20032;-89
2021/10/01 05:13:51;;;;;;;2.95;2.25;;;;;;;26.18;22.20;99300.94;5091592;28;20040;-90
2021/10/01 05:16:17;;;;;;;1.98;1.77;;;;;;;26.37;22.13;99294.66;5085393;28;20032;-90
2021/10/01 05:18:44;;;;;;;4.15;2.28;;;;;;;26.49;22.14;99293.34;5087168;28;20491;-88
2021/10/01 05:21:10;;;;;;;2.97;2.10;;;;;;;26.35;22.08;99296.31;5089274;28;20039;-87
2021/10/01 05:23:36;;;;;;;4.25;2.08;;;;;;;26.46;22.33;99292.16;5086211;28;20020;-86
2021/10/01 05:26:02;;;;;;;3.47;1.60;;;;;;;26.45;22.07;99295.38;5089644;28;20035;-86
2021/10/01 05:28:28;;;;;;;5.65;2.58;;;;;;;26.29;22.65;99307.25;5098056;28;20377;-87
2021/10/01 05:30:55;;;;;;;5.70;2.70;;;;;;;25.84;23.50;99311.28;5099989;28;20491;-89
2021/10/01 05:33:21;;;;;;;7.97;2.45;;;;;;;25.85;23.40;99305.28;5115357;28;20092;-89
2021/10/01 05:35:47;;;;;;;3.45;2.20;;;;;;;26.04;23.26;99301.84;5109420;28;20684;-90
2021/10/01 05:38:15;;;;;;;3.38;2.10;;;;;;;26.28;22.99;99307.66;5076246;28;20487;-88
2021/10/01 05:40:41;;;;;;;2.80;2.33;;;;;;;26.19;23.34;99308.16;5087947;28;20119;-92
2021/10/01 05:43:07;;;;;;;2.78;2.10;;;;;;;25.84;23.47;99300.84;5088541;28;20024;-88
2021/10/01 05:45:34;;;;;;;2.70;2.08;;;;;;;25.30;24.60;99304.50;5070350;28;20040;-89
2021/10/01 05:48:01;;;;;;;3.40;2.70;;;;;;;24.96;24.83;99315.59;5066372;28;20063;-87
2021/10/01 05:50:31;;;;;;;2.60;2.25;;;;;;;25.20;25.01;99311.00;5094940;28;20555;-88
2021/10/01 05:53:00;;;;;;;2.17;1.92;;;;;;;25.36;25.02;99306.47;5096215;28;20046;-87
2021/10/01 05:55:26;;;;;;;2.38;1.65;;;;;;;25.32;25.24;99311.31;5093790;28;20044;-87
2021/10/01 05:57:53;;;;;;;3.38;1.90;;;;;;;25.29;25.20;99319.78;5089297;28;20032;-87
2021/10/01 06:00:19;;;;;;;2.78;2.10;;;;;;;25.12;25.50;99324.31;5077440;28;20514;-86
2021/10/01 06:02:46;;;;;;;4.22;3.05;;;;;;;25.24;25.54;99323.81;5094567;28;20040;-87
2021/10/01 06:05:13;;;;;;;2.03;1.73;;;;;;;25.79;25.03;99314.59;5087163;28;20035;-87
2021/10/01 06:07:40;;;;;;;2.85;2.08;;;;;;;25.23;25.80;99322.22;5095367;28;20032;-88
2021/10/01 06:10:07;;;;;;;2.92;2.08;;;;;;;25.57;25.74;99325.22;5095178;28;20050;-87
2021/10/01 06:12:34;;;;;;;3.00;1.98;;;;;;;24.72;26.64;99330.53;5075476;28;20395;-88
2021/10/01 06:15:01;;;;;;;2.42;1.73;;;;;;;25.46;25.89;99323.72;5107706;28;20043;-87
2021/10/01 06:17:27;;;;;;;2.28;1.98;;;;;;;25.57;25.65;99321.59;5095910;28;20496;-86
2021/10/01 06:19:53;;;;;;;2.78;1.98;;;;;;;25.65;25.63;99323.16;5094721;28;20028;-87
2021/10/01 06:22:19;;;;;;;2.20;1.98;;;;;;;26.06;24.81;99315.50;5092325;28;20040;-88
2021/10/01 06:24:45;;;;;;;2.03;1.65;;;;;;;26.39;25.50;99319.59;5077055;28;20053;-88
2021/10/01 06:27:14;;;;;;;1.95;1.75;;;;;;;26.24;24.85;99327.41;5095554;28;20387;-87
2021/10/01 06:29:40;;;;;;;2.30;1.88;;;;;;;25.59;25.96;99324.78;5095049;28;20036;-88
2021/10/01 06:32:06;;;;;;;2.08;1.88;;;;;;;24.83;27.46;99322.88;5097295;28;20475;-87
2021/10/01 06:34:32;;;;;;;3.47;2.28;;;;;;;24.49;27.72;99335.84;5112397;28;20128;-87
2021/10/01 06:36:58;;;;;;;2.88;2.03;;;;;;;23.98;28.55;99337.16;5098743;28;20048;-87
2021/10/01 06:39:24;;;;;;;3.10;2.15;;;;;;;24.23;28.90;99333.50;5076289;28;20050;-87
2021/10/01 06:41:50;;;;;;;3.17;2.35;;;;;;;23.84;29.52;99328.75;5094334;28;20036;-88
2021/10/01 06:44:24;;;;;;;1.55;1.42;;;;;;;25.58;27.07;99320.41;5094310;28;20032;-88
2021/10/01 06:46:58;;;;;;;2.08;1.70;;;;;;;26.20;25.90;99318.22;5082432;28;20038;-88
2021/10/01 06:49:47;;;;;;;3.60;1.83;;;;;;;25.69;27.32;99321.91;5109979;28;20034;-88
2021/10/01 06:52:50;;;;;;;3.83;2.30;;;;;;;25.63;26.61;99320.72;5089256;28;20071;-88
2021/10/01 07:21:07;;;;;;;2.30;1.45;;;;;;;25.72;27.21;99315.44;5092013;28;20531;-88
2021/10/01 07:38:54;;;;;;;1.63;1.25;;;;;;;26.82;26.85;99319.88;5107193;28;20105;-87
2021/10/01 08:20:28;;;;;;;2.65;1.67;;;;;;;24.91;30.57;99264.63;5074906;28;20096;-88
2021/10/01 08:22:55;;;;;;;1.77;1.67;;;;;;;25.81;28.75;99276.34;5070445;28;20028;-88
2021/10/01 08:25:21;;;;;;;3.88;1.52;;;;;;;26.25;28.00;99286.78;5071775;28;20403;-88
2021/10/01 08:27:47;;;;;;;2.67;1.33;;;;;;;25.55;28.47;99288.28;5071428;28;20029;-89
2021/10/01 08:30:13;;;;;;;3.20;1.60;;;;;;;26.78;27.39;99272.03;5072620;28;20056;-89
2021/10/01 08:32:41;;;;;;;1.75;1.40;;;;;;;26.34;27.04;99270.19;5072654;28;20028;-87
2021/10/01 08:35:09;;;;;;;3.55;2.03;;;;;;;25.42;29.66;99270.25;5070939;28;20037;-87
2021/10/01 08:37:35;;;;;;;1.67;1.55;;;;;;;25.05;30.16;99261.72;5087069;28;20033;-88
2021/10/01 08:40:02;;;;;;;3.50;1.40;;;;;;;26.20;28.79;99267.53;5065886;28;20029;-90
2021/10/01 08:42:29;;;;;;;1.50;1.38;;;;;;;26.84;28.86;99266.72;5066988;28;20045;-88
2021/10/01 08:44:56;;;;;;;3.60;2.65;;;;;;;25.75;28.53;99269.59;5072093;28;20032;-91
2021/10/01 08:47:24;;;;;;;4.43;2.22;;;;;;;23.69;31.70;99273.06;5071804;28;20086;-89
2021/10/01 08:49:50;;;;;;;4.85;1.95;;;;;;;23.80;31.94;99266.25;5080678;28;20041;-88
2021/10/01 08:52:17;;;;;;;3.75;2.55;;;;;;;23.27;32.55;99257.03;5052612;28;20079;-90
2021/10/01 08:54:44;;;;;;;3.92;2.60;;;;;;;23.46;32.36;99265.09;5060194;28;20442;-90
2021/10/01 08:57:11;;;;;;;4.82;3.15;;;;;;;23.66;32.88;99260.69;5065604;28;20071;-89
2021/10/01 08:59:37;;;;;;;2.25;1.90;;;;;;;23.80;33.16;99257.84;5069353;28;20374;-88
2021/10/01 09:02:03;;;;;;;4.43;2.50;;;;;;;23.60;33.84;99255.84;5068129;28;20029;-88
2021/10/01 09:04:30;;;;;;;5.32;2.60;;;;;;;24.98;31.61;99251.34;5066488;28;20045;-89
2021/10/01 09:06:58;;;;;;;2.83;2.13;;;;;;;25.58;30.37;99261.34;5070779;28;20036;-89
2021/10/01 09:09:40;;;;;;;3.72;3.13;;;;;;;24.22;31.69;99268.19;5071959;28;20089;-88
2021/10/01 09:12:07;;;;;;;4.75;2.60;;;;;;;23.90;31.98;99261.81;5072194;28;20032;-91
2021/10/01 09:14:46;;;;;;;6.18;2.65;;;;;;;23.25;32.79;99254.66;5066455;28;20047;-92
2021/10/01 09:17:16;;;;;;;2.88;2.10;;;;;;;24.33;31.95;99252.09;5072869;28;20130;-92
2021/10/01 09:19:43;;;;;;;3.55;2.65;;;;;;;24.44;31.61;99254.81;5071822;28;20528;-94
2021/10/01 09:22:09;;;;;;;3.38;2.35;;;;;;;25.48;30.58;99243.34;5069682;28;20120;-94
2021/10/01 09:24:42;;;;;;;4.47;2.80;;;;;;;25.19;29.85;99247.56;5073112;28;20075;-89
2021/10/01 09:27:10;;;;;;;3.65;2.50;;;;;;;26.04;29.79;99244.78;5076063;28;20411;-94
2021/10/01 09:29:37;;;;;;;2.83;2.28;;;;;;;26.26;29.40;99236.88;5057746;28;20361;-95
2021/10/01 09:32:13;;;;;;;3.92;2.90;;;;;;;25.58;29.35;99227.59;5078155;28;20032;-94
2021/10/01 09:34:45;;;;;;;4.05;2.60;;;;;;;24.66;32.52;99237.47;5075910;28;20090;-94
2021/10/01 09:37:29;;;;;;;2.33;2.10;;;;;;;26.27;30.25;99239.28;5075545;28;20408;-93
2021/10/01 09:39:57;;;;;;;2.65;2.17;;;;;;;28.01;28.03;99232.53;5072355;28;20050;-94
2021/10/01 09:42:30;;;;;;;2.72;2.25;;;;;;;28.15;27.66;99223.75;5074486;28;20029;-95
2021/10/01 09:45:08;;;;;;;3.30;3.00;;;;;;;27.27;27.82;99222.53;5063288;28;20492;-96
2021/10/01 09:47:44;;;;;;;2.67;1.90;;;;;;;26.39;28.61;99221.84;5057958;28;20044;-93
2021/10/01 09:50:14;;;;;;;9.40;3.05;;;;;;;25.56;29.92;99225.16;5057280;28;20037;-93
2021/10/01 09:52:46;;;;;;;3.50;2.42;;;;;;;26.63;29.05;99226.31;5065097;28;20146;-92
2021/10/01 09:55:20;;;;;;;3.53;2.35;;;;;;;26.69;28.69;99224.63;5081342;28;20055;-95
2021/10/01 09:58:08;;;;;;;6.20;2.63;;;;;;;26.73;29.58;99224.56;5094900;28;20032;-93
2021/10/01 10:00:47;;;;;;;2.97;2.08;;;;;;;26.52;28.25;99225.66;5095018;28;20051;-94
2021/10/01 10:03:25;;;;;;;1.92;1.70;;;;;;;28.42;26.73;99224.41;5087059;28;20507;-95
2021/10/01 10:06:05;;;;;;;2.72;1.95;;;;;;;26.97;29.13;99217.00;5095772;28;20101;-91
2021/10/01 10:08:36;;;;;;;7.63;1.97;;;;;;;27.16;29.04;99219.09;5095724;28;20036;-92
2021/10/01 10:11:04;;;;;;;;;;;;;;;26.94;29.02;99220.66;5087550;28;20816;-90
2021/10/01 10:13:43;;;;;;;2.33;2.13;;;;;;;26.51;29.48;99215.63;5093101;28;19930;-91
2021/10/01 10:16:13;;;;;;;3.35;2.40;;;;;;;25.52;31.41;99213.16;5076966;28;20039;-93
2021/10/01 10:18:39;;;;;;;4.18;2.50;;;;;;;25.45;31.92;99204.78;5088576;28;20032;-92
2021/10/01 10:21:06;;;;;;;2.25;1.80;;;;;;;27.02;30.18;99203.22;5088502;28;20036;-92
2021/10/01 10:23:32;;;;;;;1.83;1.73;;;;;;;28.97;27.73;99200.97;5095470;28;20037;-93
2021/10/01 10:25:58;;;;;;;3.83;2.08;;;;;;;29.15;26.14;99206.97;5091960;28;20392;-93
2021/10/01 10:28:24;;;;;;;2.75;1.83;;;;;;;29.64;24.92;99196.44;5092053;28;20392;-93
2021/10/01 10:30:52;;;;;;;2.08;1.77;;;;;;;28.45;27.71;99195.28;5094084;28;20182;-92
2021/10/01 10:33:39;;;;;;;2.10;1.92;;;;;;;25.79;29.63;99199.22;5113168;28;20474;-91
2021/10/01 10:36:26;;;;;;;1.75;1.65;;;;;;;26.27;28.91;99191.44;5096888;28;20028;-89
2021/10/01 10:38:52;;;;;;;1.63;1.30;;;;;;;27.54;28.51;99194.31;5075268;28;20039;-89
2021/10/01 10:41:29;;;;;;;1.67;1.25;;;;;;;26.53;30.37;99190.66;5075466;28;20029;-89
2021/10/01 10:43:56;;;;;;;1.95;1.48;;;;;;;26.39;29.24;99182.41;5079320;28;20058;-89
2021/10/01 10:46:37;;;;;;;2.38;1.45;;;;;;;25.81;29.85;99186.31;5091963;28;20028;-90
2021/10/01 10:49:33;;;;;;;1.77;1.20;;;;;;;27.82;28.15;99190.94;5093998;28;20483;-89
2021/10/01 10:52:15;;;;;;;1.27;1.17;;;;;;;28.33;27.35;99184.66;5094571;28;20097;-90
2021/10/01 10:55:12;;;;;;;1.95;1.42;;;;;;;27.03;27.66;99189.91;5087752;28;20076;-89
2021/10/01 10:57:38;;;;;;;1.40;1.30;;;;;;;28.37;28.04;99187.41;5089190;28;20036;-89
2021/10/01 11:00:31;;;;;;;5.00;1.00;;;;;;;29.81;25.89;99181.03;5094817;28;20020;-89
2021/10/01 11:03:37;;;;;;;1.25;0.80;;;;;;;29.73;25.01;99179.63;5061683;28;20656;-90
2021/10/01 11:06:13;;;;;;;1.42;0.77;;;;;;;30.65;24.95;99174.91;5052348;28;20066;-89
2021/10/01 11:08:44;;;;;;;1.02;0.80;;;;;;;31.25;24.01;99175.00;5051588;28;20029;-89
2021/10/01 11:11:28;;;;;;;1.00;0.85;;;;;;;30.80;23.66;99165.94;5068745;28;20076;-89
2021/10/01 11:14:20;;;;;;;1.42;1.13;;;;;;;29.70;24.42;99168.38;5110788;28;20063;-89
2021/10/01 11:17:09;;;;;;;1.35;0.88;;;;;;;29.15;25.47;99160.94;5093080;28;20024;-89
2021/10/01 11:19:38;;;;;;;0.80;0.80;;;;;;;29.28;25.82;99162.63;5106057;28;20446;-89
2021/10/01 11:22:26;;;;;;;1.13;1.02;;;;;;;28.81;26.06;99161.38;5112789;28;20046;-88
2021/10/01 11:25:13;;;;;;;2.78;2.05;;;;;;;27.20;29.07;99161.44;5108664;28;20032;-89
2021/10/01 11:27:49;;;;;;;2.58;1.38;;;;;;;25.47;31.29;99159.38;5093009;28;20039;-88
2021/10/01 11:30:15;;;;;;;2.05;1.90;;;;;;;24.43;33.97;99153.00;5094078;28;20024;-90
2021/10/01 11:32:41;;;;;;;1.60;1.40;;;;;;;25.99;31.21;99155.97;5092994;28;20032;-88
2021/10/01 11:35:08;;;;;;;1.75;1.33;;;;;;;27.12;29.85;99156.34;5091033;28;20028;-89
2021/10/01 11:37:40;;;;;;;1.35;1.23;;;;;;;28.98;26.37;99143.19;5074087;28;20032;-89
2021/10/01 11:40:10;;;;;;;1.60;1.20;;;;;;;28.15;27.63;99144.69;5091737;28;20028;-89
2021/10/01 11:42:42;;;;;;;1.70;1.23;;;;;;;29.24;26.24;99138.50;5094326;28;20052;-89
2021/10/01 11:45:24;;;;;;;1.20;1.10;;;;;;;27.82;28.03;99142.97;5093495;28;20021;-89
2021/10/01 11:47:56;;;;;;;2.08;1.00;;;;;;;29.77;25.91;99135.03;5093827;28;20085;-89
2021/10/01 11:50:37;;;;;;;1.77;1.00;;;;;;;29.49;25.44;99123.69;5093860;28;20035;-89
2021/10/01 11:53:05;;;;;;;1.48;1.20;;;;;;;27.42;28.67;99136.50;5088033;28;20126;-89
2021/10/01 11:55:35;;;;;;;0.80;0.80;;;;;;;29.14;26.40;99116.91;5082927;28;20452;-89
2021/10/01 11:58:20;;;;;;;0.85;0.80;;;;;;;30.16;26.33;99111.22;5094115;28;20031;-89
2021/10/01 12:00:47;;;;;;;1.90;1.00;;;;;;;27.99;28.25;99116.41;5074838;28;20097;-89
2021/10/01 12:03:14;;;;;;;1.38;1.05;;;;;;;28.30;28.37;99120.56;5089304;28;20028;-89
2021/10/01 12:05:45;;;;;;;0.77;0.60;;;;;;;29.13;26.97;99118.94;5094062;28;20024;-89
2021/10/01 12:08:12;;;;;;;1.15;1.05;;;;;;;29.70;25.72;99112.56;5093212;28;20088;-89
2021/10/01 12:10:44;;;;;;;0.98;0.90;;;;;;;29.69;24.56;99110.16;5089128;28;20039;-88
2021/10/01 12:13:24;;;;;;;1.13;0.73;;;;;;;30.16;24.66;99107.59;5094322;28;20417;-88
2021/10/01 12:15:59;;;;;;;1.88;0.80;;;;;;;30.50;24.59;99100.03;5103835;28;20039;-88
2021/10/01 12:18:33;;;;;;;0.77;0.60;;;;;;;31.86;24.55;99103.44;5108429;28;20071;-89
2021/10/01 12:21:21;;;;;;;0.60;0.57;;;;;;;32.25;23.50;99099.16;5101883;28;20051;-88
2021/10/01 12:23:56;;;;;;;0.85;0.80;;;;;;;32.12;23.52;99089.91;5092976;28;20126;-89
2021/10/01 12:26:31;;;;;;;0.70;0.70;;;;;;;30.47;24.43;99086.78;5070572;28;20043;-89
2021/10/01 12:28:59;;;;;;;1.67;0.90;;;;;;;28.17;27.84;99082.91;5073602;28;20032;-90
2021/10/01 12:31:29;;;;;;;1.40;1.00;;;;;;;27.45;29.15;99082.00;5072644;28;20520;-89
2021/10/01 12:34:00;;;;;;;0.98;0.98;;;;;;;27.31;30.62;99085.06;5086954;28;20039;-89
2021/10/01 12:36:26;;;;;;;;;;;;;;;28.06;28.45;99083.16;5093090;28;20035;-89
2021/10/01 12:38:55;;;;;;;1.20;1.10;;;;;;;27.31;29.67;99074.59;5092957;28;20359;-89
2021/10/01 12:41:22;;;;;;;1.33;1.05;;;;;;;27.55;29.02;99077.38;5072759;28;20036;-89
2021/10/01 12:43:54;;;;;;;1.35;1.10;;;;;;;27.12;29.51;99080.22;5093182;28;20060;-88
2021/10/01 12:46:35;;;;;;;0.90;0.90;;;;;;;26.93;29.87;99073.31;5090469;28;20025;-89
2021/10/01 12:49:33;;;;;;;1.33;1.00;;;;;;;26.93;29.49;99069.69;5074927;28;20043;-88
2021/10/01 12:52:09;;;;;;;1.20;1.10;;;;;;;27.98;28.64;99067.56;5052213;28;20049;-88
2021/10/01 12:54:44;;;;;;;1.20;1.10;;;;;;;27.76;29.34;99054.38;5092172;28;20480;-88
2021/10/01 12:57:33;;;;;;;1.00;0.90;;;;;;;28.53;27.58;99051.81;5091767;28;20051;-88
2021/10/01 13:00:11;;;;;;;0.88;0.80;;;;;;;27.32;28.70;99055.66;5094617;28;20082;-88
2021/10/01 13:02:40;;;;;;;14.93;1.60;;;;;;;26.29;31.18;99053.81;5096917;28;20052;-88
2021/10/01 13:05:17;;;;;;;0.80;0.80;;;;;;;27.35;29.90;99046.34;5096687;28;20035;-88
2021/10/01 13:07:45;;;;;;;1.50;1.35;;;;;;;27.10;29.81;99046.81;5083895;28;20054;-87
2021/10/01 13:10:23;;;;;;;1.38;1.10;;;;;;;26.67;30.38;99041.13;5087390;28;20036;-89
2021/10/01 13:12:58;;;;;;;1.40;1.17;;;;;;;26.96;29.86;99037.81;5092757;28;20493;-84
2021/10/01 13:15:39;;;;;;;1.25;1.02;;;;;;;26.96;29.97;99035.00;5084907;28;20107;-82
2021/10/01 13:18:20;;;;;;;0.85;0.80;;;;;;;28.31;28.48;99028.16;5088904;28;20089;-84